sensor_id;sensor_type;location;lat;lon;timestamp;P1;durP1;ratioP1;P2;durP2;ratioP2
1879;SDS011;49285;49.002;8.390;2023-10-19T00:00:40;25.37;;;18.77;;
1879;SDS011;49285;49.002;8.390;2023-10-19T00:03:10;21.00;;;17.23;;
1879;SDS011;49285;49.002;8.390;2023-10-19T00:05:37;23.90;;;18.87;;
1879;SDS011;49285;49.002;8.390;2023-10-19T00:08:04;22.37;;;18.37;;
1879;SDS011;49285;49.002;8.390;2023-10-19T00:10:43;23.40;;;20.17;;
1879;SDS011;49285;49.002;8.390;2023-10-19T00:13:12;22.63;;;18.07;;
1879;SDS011;49285;49.002;8.390;2023-10-19T00:15:38;19.87;;;17.97;;
1879;SDS011;49285;49.002;8.390;2023-10-19T00:18:14;25.97;;;20.33;;
1879;SDS011;49285;49.002;8.390;2023-10-19T00:20:41;22.63;;;19.60;;
1879;SDS011;49285;49.002;8.390;2023-10-19T00:23:13;22.57;;;18.63;;
1879;SDS011;49285;49.002;8.390;2023-10-19T00:25:43;23.47;;;19.60;;
1879;SDS011;49285;49.002;8.390;2023-10-19T00:28:14;22.70;;;20.30;;
1879;SDS011;49285;49.002;8.390;2023-10-19T00:30:42;23.03;;;18.97;;
1879;SDS011;49285;49.002;8.390;2023-10-19T00:33:10;22.87;;;20.27;;
1879;SDS011;49285;49.002;8.390;2023-10-19T00:35:53;22.03;;;18.60;;
1879;SDS011;49285;49.002;8.390;2023-10-19T00:38:25;24.00;;;19.20;;
1879;SDS011;49285;49.002;8.390;2023-10-19T00:41:00;23.67;;;18.60;;
1879;SDS011;49285;49.002;8.390;2023-10-19T00:43:37;22.53;;;19.87;;
1879;SDS011;49285;49.002;8.390;2023-10-19T00:46:13;20.93;;;18.73;;
1879;SDS011;49285;49.002;8.390;2023-10-19T00:48:41;22.07;;;19.77;;
1879;SDS011;49285;49.002;8.390;2023-10-19T00:51:13;23.87;;;19.27;;
1879;SDS011;49285;49.002;8.390;2023-10-19T00:54:05;23.73;;;19.73;;
1879;SDS011;49285;49.002;8.390;2023-10-19T00:56:39;22.70;;;18.10;;
1879;SDS011;49285;49.002;8.390;2023-10-19T00:59:13;22.53;;;18.90;;
1879;SDS011;49285;49.002;8.390;2023-10-19T01:02:05;23.43;;;19.30;;
1879;SDS011;49285;49.002;8.390;2023-10-19T01:04:45;23.77;;;19.80;;
1879;SDS011;49285;49.002;8.390;2023-10-19T01:07:20;25.20;;;19.37;;
1879;SDS011;49285;49.002;8.390;2023-10-19T01:10:02;23.80;;;20.43;;
1879;SDS011;49285;49.002;8.390;2023-10-19T01:12:30;21.67;;;18.73;;
1879;SDS011;49285;49.002;8.390;2023-10-19T01:17:37;24.63;;;19.00;;
1879;SDS011;49285;49.002;8.390;2023-10-19T01:20:05;21.30;;;18.43;;
1879;SDS011;49285;49.002;8.390;2023-10-19T01:25:45;21.90;;;18.40;;
1879;SDS011;49285;49.002;8.390;2023-10-19T01:28:21;24.57;;;18.93;;
1879;SDS011;49285;49.002;8.390;2023-10-19T01:30:53;20.80;;;17.80;;
1879;SDS011;49285;49.002;8.390;2023-10-19T01:33:22;20.73;;;18.60;;
1879;SDS011;49285;49.002;8.390;2023-10-19T01:35:48;22.93;;;19.10;;
1879;SDS011;49285;49.002;8.390;2023-10-19T01:38:32;19.70;;;16.03;;
1879;SDS011;49285;49.002;8.390;2023-10-19T01:41:02;20.10;;;17.33;;
1879;SDS011;49285;49.002;8.390;2023-10-19T01:43:32;21.90;;;17.70;;
1879;SDS011;49285;49.002;8.390;2023-10-19T01:46:00;21.80;;;18.80;;
1879;SDS011;49285;49.002;8.390;2023-10-19T01:48:29;20.07;;;16.87;;
1879;SDS011;49285;49.002;8.390;2023-10-19T01:51:02;22.00;;;17.20;;
1879;SDS011;49285;49.002;8.390;2023-10-19T01:53:30;19.93;;;17.23;;
1879;SDS011;49285;49.002;8.390;2023-10-19T01:55:56;17.17;;;14.90;;
1879;SDS011;49285;49.002;8.390;2023-10-19T01:58:25;21.40;;;16.43;;
1879;SDS011;49285;49.002;8.390;2023-10-19T02:00:51;20.93;;;17.20;;
1879;SDS011;49285;49.002;8.390;2023-10-19T02:03:21;19.13;;;17.13;;
1879;SDS011;49285;49.002;8.390;2023-10-19T02:05:50;20.13;;;16.83;;
1879;SDS011;49285;49.002;8.390;2023-10-19T02:08:23;17.10;;;15.30;;
1879;SDS011;49285;49.002;8.390;2023-10-19T02:10:51;18.57;;;16.67;;
1879;SDS011;49285;49.002;8.390;2023-10-19T02:13:17;16.97;;;15.17;;
1879;SDS011;49285;49.002;8.390;2023-10-19T02:15:44;17.63;;;15.73;;
1879;SDS011;49285;49.002;8.390;2023-10-19T02:18:10;17.10;;;15.30;;
1879;SDS011;49285;49.002;8.390;2023-10-19T02:20:35;16.43;;;14.70;;
1879;SDS011;49285;49.002;8.390;2023-10-19T02:23:06;18.83;;;16.20;;
1879;SDS011;49285;49.002;8.390;2023-10-19T02:25:33;16.80;;;14.50;;
1879;SDS011;49285;49.002;8.390;2023-10-19T02:28:04;19.70;;;15.90;;
1879;SDS011;49285;49.002;8.390;2023-10-19T02:30:32;17.50;;;15.07;;
1879;SDS011;49285;49.002;8.390;2023-10-19T02:32:59;20.03;;;17.00;;
1879;SDS011;49285;49.002;8.390;2023-10-19T02:35:25;18.53;;;15.67;;
1879;SDS011;49285;49.002;8.390;2023-10-19T02:37:52;17.70;;;15.47;;
1879;SDS011;49285;49.002;8.390;2023-10-19T02:40:19;20.37;;;16.00;;
1879;SDS011;49285;49.002;8.390;2023-10-19T02:42:45;17.80;;;15.87;;
1879;SDS011;49285;49.002;8.390;2023-10-19T02:45:13;20.17;;;16.93;;
1879;SDS011;49285;49.002;8.390;2023-10-19T02:47:45;19.53;;;15.60;;
1879;SDS011;49285;49.002;8.390;2023-10-19T02:50:12;17.87;;;15.60;;
1879;SDS011;49285;49.002;8.390;2023-10-19T02:52:42;18.60;;;15.00;;
1879;SDS011;49285;49.002;8.390;2023-10-19T02:55:10;17.00;;;15.23;;
1879;SDS011;49285;49.002;8.390;2023-10-19T02:57:36;18.80;;;15.13;;
1879;SDS011;49285;49.002;8.390;2023-10-19T03:00:04;17.67;;;15.70;;
1879;SDS011;49285;49.002;8.390;2023-10-19T03:02:40;17.87;;;15.50;;
1879;SDS011;49285;49.002;8.390;2023-10-19T03:05:06;19.60;;;14.60;;
1879;SDS011;49285;49.002;8.390;2023-10-19T03:07:42;15.57;;;13.40;;
1879;SDS011;49285;49.002;8.390;2023-10-19T03:10:09;19.07;;;14.30;;
1879;SDS011;49285;49.002;8.390;2023-10-19T03:12:50;15.00;;;12.77;;
1879;SDS011;49285;49.002;8.390;2023-10-19T03:15:16;18.53;;;14.73;;
1879;SDS011;49285;49.002;8.390;2023-10-19T03:17:45;16.37;;;14.67;;
1879;SDS011;49285;49.002;8.390;2023-10-19T03:20:11;18.30;;;15.50;;
1879;SDS011;49285;49.002;8.390;2023-10-19T03:22:37;15.70;;;13.83;;
1879;SDS011;49285;49.002;8.390;2023-10-19T03:25:06;15.93;;;14.23;;
1879;SDS011;49285;49.002;8.390;2023-10-19T03:27:51;21.00;;;15.40;;
1879;SDS011;49285;49.002;8.390;2023-10-19T03:30:17;16.27;;;13.77;;
1879;SDS011;49285;49.002;8.390;2023-10-19T03:32:44;19.30;;;16.70;;
1879;SDS011;49285;49.002;8.390;2023-10-19T03:35:09;18.60;;;16.70;;
1879;SDS011;49285;49.002;8.390;2023-10-19T03:37:40;19.30;;;17.20;;
1879;SDS011;49285;49.002;8.390;2023-10-19T03:40:06;19.00;;;16.13;;
1879;SDS011;49285;49.002;8.390;2023-10-19T03:42:34;18.43;;;15.67;;
1879;SDS011;49285;49.002;8.390;2023-10-19T03:45:08;17.33;;;15.53;;
1879;SDS011;49285;49.002;8.390;2023-10-19T03:47:40;16.93;;;15.10;;
1879;SDS011;49285;49.002;8.390;2023-10-19T03:50:08;21.20;;;17.33;;
1879;SDS011;49285;49.002;8.390;2023-10-19T03:52:45;17.73;;;15.50;;
1879;SDS011;49285;49.002;8.390;2023-10-19T03:55:10;17.20;;;15.40;;
1879;SDS011;49285;49.002;8.390;2023-10-19T03:57:37;17.40;;;15.50;;
1879;SDS011;49285;49.002;8.390;2023-10-19T04:00:15;17.67;;;15.80;;
1879;SDS011;49285;49.002;8.390;2023-10-19T04:02:43;17.23;;;15.40;;
1879;SDS011;49285;49.002;8.390;2023-10-19T04:05:09;17.13;;;15.33;;
1879;SDS011;49285;49.002;8.390;2023-10-19T04:07:45;16.60;;;14.27;;
1879;SDS011;49285;49.002;8.390;2023-10-19T04:10:11;17.63;;;15.30;;
1879;SDS011;49285;49.002;8.390;2023-10-19T04:12:54;17.97;;;14.97;;
1879;SDS011;49285;49.002;8.390;2023-10-19T04:15:20;17.33;;;15.27;;
1879;SDS011;49285;49.002;8.390;2023-10-19T04:17:47;17.27;;;15.07;;
1879;SDS011;49285;49.002;8.390;2023-10-19T04:20:18;17.87;;;14.77;;
1879;SDS011;49285;49.002;8.390;2023-10-19T04:22:44;16.60;;;14.90;;
1879;SDS011;49285;49.002;8.390;2023-10-19T04:25:12;20.63;;;15.60;;
1879;SDS011;49285;49.002;8.390;2023-10-19T04:27:40;16.13;;;14.43;;
1879;SDS011;49285;49.002;8.390;2023-10-19T04:30:08;20.60;;;16.10;;
1879;SDS011;49285;49.002;8.390;2023-10-19T04:32:55;17.17;;;15.33;;
1879;SDS011;49285;49.002;8.390;2023-10-19T04:35:23;17.53;;;15.17;;
1879;SDS011;49285;49.002;8.390;2023-10-19T04:37:52;16.47;;;14.60;;
1879;SDS011;49285;49.002;8.390;2023-10-19T04:40:19;17.80;;;15.90;;
1879;SDS011;49285;49.002;8.390;2023-10-19T04:42:45;17.00;;;14.63;;
1879;SDS011;49285;49.002;8.390;2023-10-19T04:45:11;16.90;;;15.13;;
1879;SDS011;49285;49.002;8.390;2023-10-19T04:47:38;17.30;;;15.43;;
1879;SDS011;49285;49.002;8.390;2023-10-19T04:50:04;18.07;;;16.17;;
1879;SDS011;49285;49.002;8.390;2023-10-19T04:52:31;16.43;;;14.73;;
1879;SDS011;49285;49.002;8.390;2023-10-19T04:54:57;19.37;;;15.63;;
1879;SDS011;49285;49.002;8.390;2023-10-19T04:57:23;20.63;;;15.20;;
1879;SDS011;49285;49.002;8.390;2023-10-19T04:59:49;17.73;;;14.63;;
1879;SDS011;49285;49.002;8.390;2023-10-19T05:02:15;20.03;;;15.77;;
1879;SDS011;49285;49.002;8.390;2023-10-19T05:04:40;18.17;;;16.20;;
1879;SDS011;49285;49.002;8.390;2023-10-19T05:07:06;17.57;;;14.73;;
1879;SDS011;49285;49.002;8.390;2023-10-19T05:09:36;15.23;;;13.63;;
1879;SDS011;49285;49.002;8.390;2023-10-19T05:12:04;16.03;;;14.33;;
1879;SDS011;49285;49.002;8.390;2023-10-19T05:14:34;17.23;;;14.60;;
1879;SDS011;49285;49.002;8.390;2023-10-19T05:17:01;17.50;;;15.60;;
1879;SDS011;49285;49.002;8.390;2023-10-19T05:19:29;16.60;;;14.77;;
1879;SDS011;49285;49.002;8.390;2023-10-19T05:21:56;17.87;;;15.97;;
1879;SDS011;49285;49.002;8.390;2023-10-19T05:24:21;15.97;;;14.03;;
1879;SDS011;49285;49.002;8.390;2023-10-19T05:26:47;17.00;;;15.30;;
1879;SDS011;49285;49.002;8.390;2023-10-19T05:29:13;20.90;;;17.60;;
1879;SDS011;49285;49.002;8.390;2023-10-19T05:31:38;20.70;;;16.30;;
1879;SDS011;49285;49.002;8.390;2023-10-19T05:34:04;18.77;;;16.23;;
1879;SDS011;49285;49.002;8.390;2023-10-19T05:36:30;20.00;;;16.60;;
1879;SDS011;49285;49.002;8.390;2023-10-19T05:38:57;18.27;;;16.30;;
1879;SDS011;49285;49.002;8.390;2023-10-19T05:41:23;21.67;;;18.00;;
1879;SDS011;49285;49.002;8.390;2023-10-19T05:43:48;18.83;;;16.83;;
1879;SDS011;49285;49.002;8.390;2023-10-19T05:46:14;19.10;;;16.73;;
1879;SDS011;49285;49.002;8.390;2023-10-19T05:48:43;16.90;;;14.77;;
1879;SDS011;49285;49.002;8.390;2023-10-19T05:51:10;18.30;;;16.13;;
1879;SDS011;49285;49.002;8.390;2023-10-19T05:53:36;17.70;;;15.57;;
1879;SDS011;49285;49.002;8.390;2023-10-19T05:56:02;18.80;;;16.77;;
1879;SDS011;49285;49.002;8.390;2023-10-19T05:58:28;19.10;;;17.00;;
1879;SDS011;49285;49.002;8.390;2023-10-19T06:00:57;20.30;;;15.73;;
1879;SDS011;49285;49.002;8.390;2023-10-19T06:03:23;20.40;;;16.20;;
1879;SDS011;49285;49.002;8.390;2023-10-19T06:05:49;19.23;;;16.70;;
1879;SDS011;49285;49.002;8.390;2023-10-19T06:08:15;20.83;;;17.50;;
1879;SDS011;49285;49.002;8.390;2023-10-19T06:10:40;17.83;;;15.93;;
1879;SDS011;49285;49.002;8.390;2023-10-19T06:13:07;22.33;;;16.20;;
1879;SDS011;49285;49.002;8.390;2023-10-19T06:15:35;20.30;;;16.60;;
1879;SDS011;49285;49.002;8.390;2023-10-19T06:18:00;21.10;;;17.10;;
1879;SDS011;49285;49.002;8.390;2023-10-19T06:20:26;21.00;;;16.90;;
1879;SDS011;49285;49.002;8.390;2023-10-19T06:22:52;21.23;;;16.00;;
1879;SDS011;49285;49.002;8.390;2023-10-19T06:25:21;18.93;;;16.80;;
1879;SDS011;49285;49.002;8.390;2023-10-19T06:27:49;18.00;;;16.20;;
1879;SDS011;49285;49.002;8.390;2023-10-19T06:30:16;21.87;;;15.73;;
1879;SDS011;49285;49.002;8.390;2023-10-19T06:32:53;20.77;;;16.20;;
1879;SDS011;49285;49.002;8.390;2023-10-19T06:35:20;16.37;;;14.67;;
1879;SDS011;49285;49.002;8.390;2023-10-19T06:37:47;18.90;;;16.67;;
1879;SDS011;49285;49.002;8.390;2023-10-19T06:40:14;19.53;;;15.33;;
1879;SDS011;49285;49.002;8.390;2023-10-19T06:42:42;20.70;;;17.80;;
1879;SDS011;49285;49.002;8.390;2023-10-19T06:45:08;20.30;;;16.50;;
1879;SDS011;49285;49.002;8.390;2023-10-19T06:47:37;18.33;;;16.43;;
1879;SDS011;49285;49.002;8.390;2023-10-19T06:50:04;19.97;;;17.83;;
1879;SDS011;49285;49.002;8.390;2023-10-19T06:52:35;22.10;;;16.40;;
1879;SDS011;49285;49.002;8.390;2023-10-19T06:55:04;19.07;;;16.93;;
1879;SDS011;49285;49.002;8.390;2023-10-19T06:57:36;18.53;;;16.30;;
1879;SDS011;49285;49.002;8.390;2023-10-19T07:00:03;18.50;;;15.93;;
1879;SDS011;49285;49.002;8.390;2023-10-19T07:02:39;27.60;;;16.87;;
1879;SDS011;49285;49.002;8.390;2023-10-19T07:05:06;19.70;;;15.80;;
1879;SDS011;49285;49.002;8.390;2023-10-19T07:07:35;19.47;;;15.53;;
1879;SDS011;49285;49.002;8.390;2023-10-19T07:10:01;16.43;;;14.40;;
1879;SDS011;49285;49.002;8.390;2023-10-19T07:12:28;19.40;;;16.30;;
1879;SDS011;49285;49.002;8.390;2023-10-19T07:14:57;17.40;;;15.60;;
1879;SDS011;49285;49.002;8.390;2023-10-19T07:17:25;19.37;;;16.80;;
1879;SDS011;49285;49.002;8.390;2023-10-19T07:19:52;21.97;;;18.20;;
1879;SDS011;49285;49.002;8.390;2023-10-19T07:22:18;17.73;;;15.70;;
1879;SDS011;49285;49.002;8.390;2023-10-19T07:24:47;17.20;;;15.43;;
1879;SDS011;49285;49.002;8.390;2023-10-19T07:27:13;20.10;;;15.63;;
1879;SDS011;49285;49.002;8.390;2023-10-19T07:29:43;21.67;;;16.30;;
1879;SDS011;49285;49.002;8.390;2023-10-19T07:32:09;19.50;;;17.10;;
1879;SDS011;49285;49.002;8.390;2023-10-19T07:34:38;19.67;;;16.97;;
1879;SDS011;49285;49.002;8.390;2023-10-19T07:37:04;22.63;;;16.10;;
1879;SDS011;49285;49.002;8.390;2023-10-19T07:39:32;18.10;;;15.00;;
1879;SDS011;49285;49.002;8.390;2023-10-19T07:41:59;18.77;;;15.57;;
1879;SDS011;49285;49.002;8.390;2023-10-19T07:44:24;26.93;;;15.60;;
1879;SDS011;49285;49.002;8.390;2023-10-19T07:46:50;18.30;;;15.00;;
1879;SDS011;49285;49.002;8.390;2023-10-19T07:49:17;16.77;;;14.97;;
1879;SDS011;49285;49.002;8.390;2023-10-19T07:51:49;18.30;;;16.30;;
1879;SDS011;49285;49.002;8.390;2023-10-19T07:54:16;22.37;;;16.30;;
1879;SDS011;49285;49.002;8.390;2023-10-19T07:56:41;22.07;;;18.47;;
1879;SDS011;49285;49.002;8.390;2023-10-19T07:59:08;19.47;;;14.63;;
1879;SDS011;49285;49.002;8.390;2023-10-19T08:01:34;19.43;;;16.00;;
1879;SDS011;49285;49.002;8.390;2023-10-19T08:04:01;20.60;;;17.93;;
1879;SDS011;49285;49.002;8.390;2023-10-19T08:06:26;26.17;;;19.97;;
1879;SDS011;49285;49.002;8.390;2023-10-19T08:08:52;26.13;;;18.27;;
1879;SDS011;49285;49.002;8.390;2023-10-19T08:11:18;32.80;;;21.50;;
1879;SDS011;49285;49.002;8.390;2023-10-19T08:13:43;25.87;;;18.63;;
1879;SDS011;49285;49.002;8.390;2023-10-19T08:16:09;32.53;;;24.73;;
1879;SDS011;49285;49.002;8.390;2023-10-19T08:18:37;27.97;;;21.87;;
1879;SDS011;49285;49.002;8.390;2023-10-19T08:21:02;23.53;;;16.53;;
1879;SDS011;49285;49.002;8.390;2023-10-19T08:23:28;16.97;;;14.07;;
1879;SDS011;49285;49.002;8.390;2023-10-19T08:25:56;20.07;;;15.30;;
1879;SDS011;49285;49.002;8.390;2023-10-19T08:28:22;21.47;;;15.50;;
1879;SDS011;49285;49.002;8.390;2023-10-19T08:30:48;21.20;;;14.67;;
1879;SDS011;49285;49.002;8.390;2023-10-19T08:33:23;17.13;;;13.63;;
1879;SDS011;49285;49.002;8.390;2023-10-19T08:35:51;15.83;;;14.23;;
1879;SDS011;49285;49.002;8.390;2023-10-19T08:38:18;17.07;;;13.07;;
1879;SDS011;49285;49.002;8.390;2023-10-19T08:40:44;13.70;;;12.10;;
1879;SDS011;49285;49.002;8.390;2023-10-19T08:43:10;14.23;;;12.60;;
1879;SDS011;49285;49.002;8.390;2023-10-19T08:45:38;14.03;;;12.20;;
1879;SDS011;49285;49.002;8.390;2023-10-19T08:48:04;14.20;;;12.70;;
1879;SDS011;49285;49.002;8.390;2023-10-19T08:50:31;16.33;;;13.77;;
1879;SDS011;49285;49.002;8.390;2023-10-19T08:53:01;17.43;;;13.77;;
1879;SDS011;49285;49.002;8.390;2023-10-19T08:55:28;16.03;;;13.10;;
1879;SDS011;49285;49.002;8.390;2023-10-19T08:57:55;15.40;;;13.80;;
1879;SDS011;49285;49.002;8.390;2023-10-19T09:00:24;13.97;;;12.00;;
1879;SDS011;49285;49.002;8.390;2023-10-19T09:02:53;16.03;;;13.80;;
1879;SDS011;49285;49.002;8.390;2023-10-19T09:05:22;16.50;;;13.70;;
1879;SDS011;49285;49.002;8.390;2023-10-19T09:07:54;15.83;;;13.40;;
1879;SDS011;49285;49.002;8.390;2023-10-19T09:10:24;13.17;;;10.93;;
1879;SDS011;49285;49.002;8.390;2023-10-19T09:13:06;13.67;;;12.37;;
1879;SDS011;49285;49.002;8.390;2023-10-19T09:15:38;16.17;;;12.97;;
1879;SDS011;49285;49.002;8.390;2023-10-19T09:18:14;13.23;;;11.83;;
1879;SDS011;49285;49.002;8.390;2023-10-19T09:20:41;16.97;;;13.07;;
1879;SDS011;49285;49.002;8.390;2023-10-19T09:23:17;15.03;;;13.50;;
1879;SDS011;49285;49.002;8.390;2023-10-19T09:25:46;17.83;;;13.43;;
1879;SDS011;49285;49.002;8.390;2023-10-19T09:28:13;12.90;;;11.50;;
1879;SDS011;49285;49.002;8.390;2023-10-19T09:30:39;15.33;;;12.30;;
1879;SDS011;49285;49.002;8.390;2023-10-19T09:33:05;13.73;;;11.10;;
1879;SDS011;49285;49.002;8.390;2023-10-19T09:35:33;12.03;;;10.80;;
1879;SDS011;49285;49.002;8.390;2023-10-19T09:37:59;14.10;;;10.33;;
1879;SDS011;49285;49.002;8.390;2023-10-19T09:40:25;14.80;;;10.20;;
1879;SDS011;49285;49.002;8.390;2023-10-19T09:42:54;12.23;;;11.03;;
1879;SDS011;49285;49.002;8.390;2023-10-19T09:45:23;9.83;;;8.83;;
1879;SDS011;49285;49.002;8.390;2023-10-19T09:47:55;10.23;;;9.23;;
1879;SDS011;49285;49.002;8.390;2023-10-19T09:50:21;10.50;;;8.90;;
1879;SDS011;49285;49.002;8.390;2023-10-19T09:52:47;11.50;;;9.33;;
1879;SDS011;49285;49.002;8.390;2023-10-19T09:55:17;9.37;;;8.43;;
1879;SDS011;49285;49.002;8.390;2023-10-19T09:58:04;10.03;;;9.00;;
1879;SDS011;49285;49.002;8.390;2023-10-19T10:00:42;11.40;;;9.47;;
1879;SDS011;49285;49.002;8.390;2023-10-19T10:06:08;10.73;;;8.83;;
1879;SDS011;49285;49.002;8.390;2023-10-19T10:08:39;9.40;;;8.43;;
1879;SDS011;49285;49.002;8.390;2023-10-19T10:11:20;9.50;;;7.97;;
1879;SDS011;49285;49.002;8.390;2023-10-19T10:13:46;8.47;;;7.67;;
1879;SDS011;49285;49.002;8.390;2023-10-19T10:16:21;9.03;;;8.13;;
1879;SDS011;49285;49.002;8.390;2023-10-19T10:18:53;10.07;;;8.23;;
1879;SDS011;49285;49.002;8.390;2023-10-19T10:21:27;8.63;;;7.50;;
1879;SDS011;49285;49.002;8.390;2023-10-19T10:24:02;10.40;;;8.00;;
1879;SDS011;49285;49.002;8.390;2023-10-19T10:26:30;9.67;;;8.47;;
1879;SDS011;49285;49.002;8.390;2023-10-19T10:31:43;8.90;;;7.50;;
1879;SDS011;49285;49.002;8.390;2023-10-19T10:34:10;12.77;;;8.60;;
1879;SDS011;49285;49.002;8.390;2023-10-19T10:39:27;11.50;;;8.37;;
1879;SDS011;49285;49.002;8.390;2023-10-19T10:41:58;12.33;;;9.37;;
1879;SDS011;49285;49.002;8.390;2023-10-19T10:44:37;12.50;;;9.27;;
1879;SDS011;49285;49.002;8.390;2023-10-19T10:47:11;10.17;;;8.80;;
1879;SDS011;49285;49.002;8.390;2023-10-19T10:52:33;13.23;;;9.03;;
1879;SDS011;49285;49.002;8.390;2023-10-19T10:55:06;9.97;;;9.07;;
1879;SDS011;49285;49.002;8.390;2023-10-19T10:57:36;9.80;;;8.80;;
1879;SDS011;49285;49.002;8.390;2023-10-19T11:02:35;12.30;;;9.80;;
1879;SDS011;49285;49.002;8.390;2023-10-19T11:05:02;11.47;;;10.30;;
1879;SDS011;49285;49.002;8.390;2023-10-19T11:07:28;10.50;;;9.40;;
1879;SDS011;49285;49.002;8.390;2023-10-19T11:09:54;13.10;;;9.80;;
1879;SDS011;49285;49.002;8.390;2023-10-19T11:12:20;12.17;;;10.50;;
1879;SDS011;49285;49.002;8.390;2023-10-19T11:14:52;12.80;;;9.83;;
1879;SDS011;49285;49.002;8.390;2023-10-19T11:17:18;10.50;;;9.40;;
1879;SDS011;49285;49.002;8.390;2023-10-19T11:19:44;10.70;;;9.60;;
1879;SDS011;49285;49.002;8.390;2023-10-19T11:22:10;12.33;;;9.87;;
1879;SDS011;49285;49.002;8.390;2023-10-19T11:24:36;12.80;;;11.00;;
1879;SDS011;49285;49.002;8.390;2023-10-19T11:27:05;12.93;;;10.37;;
1879;SDS011;49285;49.002;8.390;2023-10-19T11:29:32;14.97;;;11.63;;
1879;SDS011;49285;49.002;8.390;2023-10-19T11:32:01;11.70;;;10.20;;
1879;SDS011;49285;49.002;8.390;2023-10-19T11:34:27;12.70;;;11.27;;
1879;SDS011;49285;49.002;8.390;2023-10-19T11:36:56;19.90;;;11.80;;
1879;SDS011;49285;49.002;8.390;2023-10-19T11:39:24;17.40;;;12.00;;
1879;SDS011;49285;49.002;8.390;2023-10-19T11:41:53;13.40;;;11.00;;
1879;SDS011;49285;49.002;8.390;2023-10-19T11:44:19;14.87;;;12.30;;
1879;SDS011;49285;49.002;8.390;2023-10-19T11:46:45;14.50;;;10.53;;
1879;SDS011;49285;49.002;8.390;2023-10-19T11:49:10;15.03;;;11.93;;
1879;SDS011;49285;49.002;8.390;2023-10-19T11:51:36;15.20;;;12.10;;
1879;SDS011;49285;49.002;8.390;2023-10-19T11:54:04;13.07;;;11.67;;
1879;SDS011;49285;49.002;8.390;2023-10-19T11:56:31;13.80;;;11.10;;
1879;SDS011;49285;49.002;8.390;2023-10-19T11:58:57;14.73;;;10.97;;
1879;SDS011;49285;49.002;8.390;2023-10-19T12:01:22;14.63;;;12.13;;
1879;SDS011;49285;49.002;8.390;2023-10-19T12:03:50;13.83;;;10.90;;
1879;SDS011;49285;49.002;8.390;2023-10-19T12:06:16;13.00;;;11.70;;
1879;SDS011;49285;49.002;8.390;2023-10-19T12:08:45;21.40;;;13.10;;
1879;SDS011;49285;49.002;8.390;2023-10-19T12:11:11;15.00;;;11.50;;
1879;SDS011;49285;49.002;8.390;2023-10-19T12:13:41;13.97;;;11.03;;
1879;SDS011;49285;49.002;8.390;2023-10-19T12:16:13;13.63;;;11.50;;
1879;SDS011;49285;49.002;8.390;2023-10-19T12:18:40;13.10;;;11.80;;
1879;SDS011;49285;49.002;8.390;2023-10-19T12:21:10;13.90;;;11.47;;
1879;SDS011;49285;49.002;8.390;2023-10-19T12:23:39;12.80;;;11.07;;
1879;SDS011;49285;49.002;8.390;2023-10-19T12:26:05;12.83;;;11.03;;
1879;SDS011;49285;49.002;8.390;2023-10-19T12:28:36;14.60;;;11.57;;
1879;SDS011;49285;49.002;8.390;2023-10-19T12:31:06;13.10;;;10.53;;
1879;SDS011;49285;49.002;8.390;2023-10-19T12:33:36;12.13;;;10.83;;
1879;SDS011;49285;49.002;8.390;2023-10-19T12:36:03;11.50;;;9.77;;
1879;SDS011;49285;49.002;8.390;2023-10-19T12:38:50;12.03;;;10.50;;
1879;SDS011;49285;49.002;8.390;2023-10-19T12:41:22;11.80;;;10.40;;
1879;SDS011;49285;49.002;8.390;2023-10-19T12:43:49;14.23;;;10.80;;
1879;SDS011;49285;49.002;8.390;2023-10-19T12:46:22;12.10;;;10.90;;
1879;SDS011;49285;49.002;8.390;2023-10-19T12:48:53;17.03;;;12.53;;
1879;SDS011;49285;49.002;8.390;2023-10-19T12:51:22;10.67;;;9.57;;
1879;SDS011;49285;49.002;8.390;2023-10-19T12:53:49;12.00;;;10.27;;
1879;SDS011;49285;49.002;8.390;2023-10-19T12:56:19;12.00;;;10.80;;
1879;SDS011;49285;49.002;8.390;2023-10-19T12:58:45;14.60;;;12.20;;
1879;SDS011;49285;49.002;8.390;2023-10-19T13:01:13;12.53;;;10.70;;
1879;SDS011;49285;49.002;8.390;2023-10-19T13:03:43;15.53;;;11.47;;
1879;SDS011;49285;49.002;8.390;2023-10-19T13:06:13;16.10;;;13.70;;
1879;SDS011;49285;49.002;8.390;2023-10-19T13:08:39;14.90;;;12.40;;
1879;SDS011;49285;49.002;8.390;2023-10-19T13:11:06;17.77;;;12.80;;
1879;SDS011;49285;49.002;8.390;2023-10-19T13:13:32;15.27;;;12.87;;
1879;SDS011;49285;49.002;8.390;2023-10-19T13:15:58;15.03;;;13.03;;
1879;SDS011;49285;49.002;8.390;2023-10-19T13:18:24;14.53;;;12.43;;
1879;SDS011;49285;49.002;8.390;2023-10-19T13:20:55;15.90;;;13.03;;
1879;SDS011;49285;49.002;8.390;2023-10-19T13:23:22;14.87;;;13.03;;
1879;SDS011;49285;49.002;8.390;2023-10-19T13:25:47;17.20;;;13.40;;
1879;SDS011;49285;49.002;8.390;2023-10-19T13:28:20;15.30;;;12.70;;
1879;SDS011;49285;49.002;8.390;2023-10-19T13:30:51;16.17;;;11.97;;
1879;SDS011;49285;49.002;8.390;2023-10-19T13:33:19;15.27;;;13.57;;
1879;SDS011;49285;49.002;8.390;2023-10-19T13:35:51;15.70;;;13.33;;
1879;SDS011;49285;49.002;8.390;2023-10-19T13:38:17;18.13;;;13.27;;
1879;SDS011;49285;49.002;8.390;2023-10-19T13:40:46;19.80;;;14.70;;
1879;SDS011;49285;49.002;8.390;2023-10-19T13:43:14;17.53;;;12.77;;
1879;SDS011;49285;49.002;8.390;2023-10-19T13:45:43;16.27;;;14.57;;
1879;SDS011;49285;49.002;8.390;2023-10-19T13:48:09;14.97;;;13.37;;
1879;SDS011;49285;49.002;8.390;2023-10-19T13:50:40;15.20;;;13.60;;
1879;SDS011;49285;49.002;8.390;2023-10-19T13:53:18;16.57;;;13.10;;
1879;SDS011;49285;49.002;8.390;2023-10-19T13:55:44;23.40;;;16.43;;
1879;SDS011;49285;49.002;8.390;2023-10-19T13:58:10;20.17;;;17.97;;
1879;SDS011;49285;49.002;8.390;2023-10-19T14:00:37;17.63;;;15.70;;
1879;SDS011;49285;49.002;8.390;2023-10-19T14:03:08;16.57;;;14.87;;
1879;SDS011;49285;49.002;8.390;2023-10-19T14:05:38;17.57;;;15.67;;
1879;SDS011;49285;49.002;8.390;2023-10-19T14:08:12;17.67;;;15.77;;
1879;SDS011;49285;49.002;8.390;2023-10-19T14:10:39;19.80;;;14.80;;
1879;SDS011;49285;49.002;8.390;2023-10-19T14:13:06;18.03;;;15.70;;
1879;SDS011;49285;49.002;8.390;2023-10-19T14:15:36;16.03;;;14.33;;
1879;SDS011;49285;49.002;8.390;2023-10-19T14:18:02;17.50;;;14.67;;
1879;SDS011;49285;49.002;8.390;2023-10-19T14:20:29;15.90;;;14.30;;
1879;SDS011;49285;49.002;8.390;2023-10-19T14:22:59;16.87;;;13.83;;
1879;SDS011;49285;49.002;8.390;2023-10-19T14:25:26;17.47;;;14.20;;
1879;SDS011;49285;49.002;8.390;2023-10-19T14:27:54;18.70;;;14.00;;
1879;SDS011;49285;49.002;8.390;2023-10-19T14:30:24;19.03;;;13.90;;
1879;SDS011;49285;49.002;8.390;2023-10-19T14:32:51;14.10;;;12.00;;
1879;SDS011;49285;49.002;8.390;2023-10-19T14:35:20;15.13;;;13.53;;
1879;SDS011;49285;49.002;8.390;2023-10-19T14:37:48;14.03;;;12.47;;
1879;SDS011;49285;49.002;8.390;2023-10-19T14:40:22;15.40;;;12.47;;
1879;SDS011;49285;49.002;8.390;2023-10-19T14:42:50;14.17;;;12.07;;
1879;SDS011;49285;49.002;8.390;2023-10-19T14:45:20;13.23;;;11.90;;
1879;SDS011;49285;49.002;8.390;2023-10-19T14:47:50;12.57;;;11.37;;
1879;SDS011;49285;49.002;8.390;2023-10-19T14:50:18;14.87;;;13.23;;
1879;SDS011;49285;49.002;8.390;2023-10-19T14:52:47;16.43;;;12.17;;
1879;SDS011;49285;49.002;8.390;2023-10-19T14:55:14;13.10;;;11.67;;
1879;SDS011;49285;49.002;8.390;2023-10-19T14:57:41;16.97;;;12.27;;
1879;SDS011;49285;49.002;8.390;2023-10-19T15:00:10;14.73;;;12.60;;
1879;SDS011;49285;49.002;8.390;2023-10-19T15:02:41;13.63;;;12.30;;
1879;SDS011;49285;49.002;8.390;2023-10-19T15:05:08;13.97;;;12.43;;